Terminal Aerodrome Forecast
Issued by NWS

Home | Current Version | Previous Version | Text Only | Print | Product List | Glossary On
Versions: 1 2 3 4 5 6 7 8 9 10 11 12 13 14 15 16 17 18 19
000
FTUS42 KFFC 261950 AAA
TAFRYY
TAF AMD
KRYY 261950Z 2620/2718 30012G18KT P6SM SKC
     FM262100 26007KT P6SM SCT080
     FM270300 25007KT P6SM BKN050
     FM271000 29006KT P6SM BKN030
     FM271600 31010KT P6SM BKN050=

USA.gov is the U.S. government's official web portal to all federal, state and local government web resources and services.